Time;durP1;ratioP1;P1;durP2;ratioP2;P2;SDS_P1;SDS_P2;PMS_P1;PMS_P2;Temp;Humidity;BMP_temperature;BMP_pressure;BME280_temperature;BME280_humidity;BME280_pressure;Samples;Min_cycle;Max_cycle;Signal;HPM_P1;HPM_P2
2022/04/25 00:01:45;;;;;;;11.90;5.37;;;;;;;;;;4914001;29;20987;-79
2022/04/25 00:04:12;;;;;;;13.73;5.50;;;;;;;;;;4914635;29;20526;-79
2022/04/25 00:06:39;;;;;;;18.93;6.23;;;;;;;;;;4914060;29;20470;-79
2022/04/25 00:09:06;;;;;;;15.27;5.70;;;;;;;;;;4912292;29;20976;-79
2022/04/25 00:11:32;;;;;;;12.93;5.77;;;;;;;;;;4914999;29;20514;-79
2022/04/25 00:14:00;;;;;;;13.27;5.57;;;;;;;;;;4913996;29;20461;-78
2022/04/25 00:16:26;;;;;;;11.37;5.53;;;;;;;;;;4914772;29;20467;-80
2022/04/25 00:18:53;;;;;;;10.47;5.20;;;;;;;;;;4914968;29;20459;-79
2022/04/25 00:21:20;;;;;;;14.47;5.63;;;;;;;;;;4927852;29;21221;-80
2022/04/25 00:23:47;;;;;;;11.20;5.13;;;;;;;;;;4913467;29;20498;-79
2022/04/25 00:26:15;;;;;;;14.33;5.80;;;;;;;;;;4897537;29;20460;-79
2022/04/25 00:28:41;;;;;;;13.67;5.97;;;;;;;;;;4908708;29;20541;-80
2022/04/25 00:31:08;;;;;;;11.97;5.20;;;;;;;;;;4917348;29;20482;-80
2022/04/25 00:33:35;;;;;;;18.57;5.73;;;;;;;;;;4917549;29;20450;-80
2022/04/25 00:36:03;;;;;;;17.17;5.93;;;;;;;;;;4917061;29;20919;-78
2022/04/25 00:38:30;;;;;;;13.77;6.43;;;;;;;;;;4917649;29;20532;-79
2022/04/25 00:40:57;;;;;;;13.07;6.73;;;;;;;;;;4917232;29;20455;-80
2022/04/25 00:43:23;;;;;;;14.33;5.73;;;;;;;;;;4918627;29;21034;-78
2022/04/25 00:45:50;;;;;;;13.40;5.83;;;;;;;;;;4905228;29;20455;-80
2022/04/25 00:48:18;;;;;;;14.20;6.17;;;;;;;;;;4914468;29;20869;-80
2022/04/25 00:50:45;;;;;;;11.43;5.50;;;;;;;;;;4918156;29;20463;-80
2022/04/25 00:53:12;;;;;;;10.70;5.83;;;;;;;;;;4918385;29;20461;-80
2022/04/25 00:55:39;;;;;;;11.57;6.37;;;;;;;;;;4917102;29;20474;-79
2022/04/25 00:58:06;;;;;;;14.23;5.80;;;;;;;;;;4916686;29;20506;-80
2022/04/25 01:00:36;;;;;;;12.70;5.43;;;;;;;;;;4929464;29;20459;-80
2022/04/25 01:03:20;;;;;;;11.73;5.27;;;;;;;;;;4901971;29;20487;-79
2022/04/25 01:05:47;;;;;;;12.50;5.57;;;;;;;;;;4916150;29;20454;-80
2022/04/25 01:08:37;;;;;;;12.90;5.07;;;;;;;;;;4918275;29;20471;-80
2022/04/25 01:11:04;;;;;;;12.97;5.03;;;;;;;;;;4901664;29;20514;-80
2022/04/25 01:13:49;;;;;;;14.53;5.73;;;;;;;;;;4905908;29;20462;-80
2022/04/25 01:16:17;;;;;;;11.37;5.27;;;;;;;;;;4917592;29;20807;-80
2022/04/25 01:18:44;;;;;;;14.73;5.80;;;;;;;;;;4913398;29;20488;-80
2022/04/25 01:21:11;;;;;;;13.87;5.90;;;;;;;;;;4901026;29;20458;-80
2022/04/25 01:29:10;;;;;;;14.40;5.93;;;;;;;;;;4916808;29;20487;-78
2022/04/25 01:31:37;;;;;;;14.43;5.77;;;;;;;;;;4913494;29;20535;-79
2022/04/25 01:34:04;;;;;;;12.23;5.30;;;;;;;;;;4908409;29;20470;-79
2022/04/25 01:36:31;;;;;;;12.53;5.60;;;;;;;;;;4914769;29;20462;-80
2022/04/25 01:38:57;;;;;;;16.57;5.47;;;;;;;;;;4917344;29;20466;-80
2022/04/25 01:41:24;;;;;;;13.27;5.77;;;;;;;;;;4915785;29;20554;-80
2022/04/25 01:43:51;;;;;;;17.57;5.97;;;;;;;;;;4916227;29;20482;-80
2022/04/25 01:46:18;;;;;;;17.07;6.03;;;;;;;;;;4916310;29;20543;-80
2022/04/25 01:48:45;;;;;;;12.63;5.43;;;;;;;;;;4917106;29;20462;-80
2022/04/25 01:51:11;;;;;;;9.67;5.10;;;;;;;;;;4916870;29;20538;-80
2022/04/25 01:53:38;;;;;;;14.27;5.90;;;;;;;;;;4916985;29;20463;-80
2022/04/25 01:56:05;;;;;;;14.63;5.20;;;;;;;;;;4917445;29;20455;-79
2022/04/25 01:58:32;;;;;;;13.30;5.67;;;;;;;;;;4916206;29;20538;-79
2022/04/25 02:01:17;;;;;;;14.33;5.27;;;;;;;;;;4917126;29;20447;-80
2022/04/25 02:03:45;;;;;;;15.87;5.00;;;;;;;;;;4917373;29;20485;-79
2022/04/25 02:06:14;;;;;;;12.60;5.33;;;;;;;;;;4917136;29;20816;-80
2022/04/25 02:08:41;;;;;;;10.83;5.27;;;;;;;;;;4916766;29;20495;-79
2022/04/25 02:11:20;;;;;;;11.93;5.27;;;;;;;;;;4915185;29;20522;-78
2022/04/25 02:13:53;;;;;;;11.73;5.13;;;;;;;;;;4915799;29;20505;-79
2022/04/25 02:16:20;;;;;;;13.20;6.17;;;;;;;;;;4915293;29;20507;-79
2022/04/25 02:18:48;;;;;;;13.43;5.27;;;;;;;;;;4917302;29;20446;-79
2022/04/25 02:21:14;;;;;;;13.90;5.83;;;;;;;;;;4913595;29;20470;-79
2022/04/25 02:23:41;;;;;;;14.43;5.90;;;;;;;;;;4915821;29;20478;-79
2022/04/25 02:26:08;;;;;;;17.00;6.07;;;;;;;;;;4914125;29;20463;-79
2022/04/25 02:28:36;;;;;;;14.55;7.00;;;;;;;;;;4912603;29;20500;-75
2022/04/25 02:31:04;;;;;;;20.83;6.13;;;;;;;;;;4907941;29;20207;-75
2022/04/25 02:33:48;;;;;;;13.07;5.93;;;;;;;;;;4908658;29;20186;-75
2022/04/25 02:36:14;;;;;;;18.67;6.80;;;;;;;;;;4914599;29;20566;-74
2022/04/25 02:38:59;;;;;;;12.33;5.50;;;;;;;;;;4915721;29;20444;-75
2022/04/25 02:41:26;;;;;;;11.67;5.73;;;;;;;;;;4915260;29;20462;-75
2022/04/25 02:43:52;;;;;;;11.63;5.80;;;;;;;;;;4914493;29;20479;-75
2022/04/25 02:46:19;;;;;;;12.93;5.83;;;;;;;;;;4900807;29;20557;-75
2022/04/25 02:48:46;;;;;;;12.20;6.23;;;;;;;;;;4914535;29;20494;-76
2022/04/25 02:51:14;;;;;;;14.20;6.83;;;;;;;;;;4914085;29;20462;-77
2022/04/25 02:53:41;;;;;;;13.00;6.40;;;;;;;;;;4902733;29;20485;-77
2022/04/25 02:56:08;;;;;;;13.50;5.63;;;;;;;;;;4906453;29;20494;-75
2022/04/25 02:58:36;;;;;;;13.57;6.57;;;;;;;;;;4892735;29;20915;-77
2022/04/25 03:01:06;;;;;;;19.30;7.90;;;;;;;;;;4907064;29;20456;-77
2022/04/25 03:03:34;;;;;;;15.93;6.90;;;;;;;;;;4908895;29;21048;-76
2022/04/25 03:06:05;;;;;;;13.10;6.60;;;;;;;;;;4908791;29;20470;-76
2022/04/25 03:08:34;;;;;;;16.20;6.83;;;;;;;;;;4908046;29;20967;-77
2022/04/25 03:11:05;;;;;;;16.43;6.53;;;;;;;;;;4907324;29;20497;-77
2022/04/25 03:13:34;;;;;;;13.30;6.50;;;;;;;;;;4908772;29;20942;-79
2022/04/25 03:16:01;;;;;;;17.67;7.40;;;;;;;;;;4896440;29;20469;-78
2022/04/25 03:18:29;;;;;;;16.67;7.17;;;;;;;;;;4908008;29;20478;-76
2022/04/25 03:20:56;;;;;;;15.27;8.17;;;;;;;;;;4909129;29;20563;-77
2022/04/25 03:23:23;;;;;;;15.10;6.73;;;;;;;;;;4910493;29;20454;-77
2022/04/25 03:25:50;;;;;;;16.83;7.27;;;;;;;;;;4907782;29;20574;-75
2022/04/25 03:28:36;;;;;;;14.50;7.23;;;;;;;;;;4906777;29;20451;-75
2022/04/25 03:31:06;;;;;;;23.87;7.60;;;;;;;;;;4906001;29;20464;-76
2022/04/25 03:33:51;;;;;;;13.93;6.37;;;;;;;;;;4907502;29;20818;-75
2022/04/25 03:36:18;;;;;;;15.67;6.77;;;;;;;;;;4905097;29;20475;-75
2022/04/25 03:38:46;;;;;;;14.37;7.60;;;;;;;;;;4905073;29;20475;-76
2022/04/25 03:41:13;;;;;;;15.27;7.60;;;;;;;;;;4905706;29;20475;-76
2022/04/25 03:43:40;;;;;;;17.53;7.20;;;;;;;;;;4907675;29;20503;-76
2022/04/25 03:46:07;;;;;;;13.63;7.37;;;;;;;;;;4908131;29;20481;-79
2022/04/25 03:48:34;;;;;;;15.23;7.00;;;;;;;;;;4907336;29;20518;-80
2022/04/25 03:51:00;;;;;;;16.03;7.77;;;;;;;;;;4922544;29;20978;-78
2022/04/25 03:53:45;;;;;;;16.83;7.27;;;;;;;;;;4906760;29;20460;-74
2022/04/25 03:58:59;;;;;;;16.13;8.00;;;;;;;;;;4906744;29;20502;-74
2022/04/25 04:01:27;;;;;;;24.10;8.20;;;;;;;;;;4906909;29;21235;-79
2022/04/25 04:03:54;;;;;;;29.20;8.97;;;;;;;;;;4909379;29;20482;-79
2022/04/25 04:06:27;;;;;;;21.20;7.93;;;;;;;;;;4908238;29;20491;-79
2022/04/25 04:08:54;;;;;;;20.27;9.10;;;;;;;;;;4905695;29;20463;-77
2022/04/25 04:11:21;;;;;;;17.13;7.93;;;;;;;;;;4907445;29;20467;-76
2022/04/25 04:13:48;;;;;;;17.70;7.73;;;;;;;;;;4906429;29;20641;-76
2022/04/25 04:16:15;;;;;;;13.47;8.00;;;;;;;;;;4907828;29;20464;-77
2022/04/25 04:18:42;;;;;;;16.33;8.17;;;;;;;;;;4920534;29;20498;-76
2022/04/25 04:21:10;;;;;;;26.83;8.40;;;;;;;;;;4907550;29;20438;-77
2022/04/25 04:23:36;;;;;;;19.10;8.00;;;;;;;;;;4907923;29;20491;-76
2022/04/25 04:26:03;;;;;;;40.03;9.37;;;;;;;;;;4905526;29;20450;-78
2022/04/25 04:28:30;;;;;;;18.30;7.60;;;;;;;;;;4908298;29;20982;-77
2022/04/25 04:30:57;;;;;;;15.80;7.37;;;;;;;;;;4906004;29;20530;-77
2022/04/25 04:33:24;;;;;;;16.63;7.67;;;;;;;;;;4907949;29;20455;-77
2022/04/25 04:36:17;;;;;;;18.93;7.93;;;;;;;;;;4906711;29;20884;-77
2022/04/25 04:38:45;;;;;;;33.70;8.97;;;;;;;;;;4919464;29;20459;-77
2022/04/25 04:41:12;;;;;;;17.57;7.53;;;;;;;;;;4906379;29;20879;-78
2022/04/25 04:43:39;;;;;;;16.93;7.87;;;;;;;;;;4907130;29;20482;-77
2022/04/25 04:46:05;;;;;;;14.00;7.63;;;;;;;;;;4905249;29;20456;-75
2022/04/25 04:48:50;;;;;;;17.97;7.87;;;;;;;;;;4908683;29;20448;-78
2022/04/25 04:51:16;;;;;;;17.27;7.87;;;;;;;;;;4923762;29;20459;-79
2022/04/25 04:53:43;;;;;;;14.20;7.87;;;;;;;;;;4906182;29;20786;-78
2022/04/25 04:56:11;;;;;;;17.37;8.13;;;;;;;;;;4899849;29;20489;-77
2022/04/25 04:58:39;;;;;;;22.83;8.87;;;;;;;;;;4907215;29;20995;-75
2022/04/25 05:01:07;;;;;;;15.67;8.63;;;;;;;;;;4911540;29;20530;-75
2022/04/25 05:03:35;;;;;;;13.50;8.50;;;;;;;;;;4905157;29;20751;-79
2022/04/25 05:06:03;;;;;;;19.60;8.73;;;;;;;;;;4906851;29;20442;-77
2022/04/25 05:08:30;;;;;;;18.27;8.97;;;;;;;;;;4904081;29;20565;-77
2022/04/25 05:10:56;;;;;;;18.10;8.67;;;;;;;;;;4907696;29;20482;-77
2022/04/25 05:13:23;;;;;;;17.53;8.93;;;;;;;;;;4921028;29;20488;-78
2022/04/25 05:15:50;;;;;;;17.87;9.57;;;;;;;;;;4909252;29;20574;-74
2022/04/25 05:18:19;;;;;;;22.57;9.00;;;;;;;;;;4911137;29;20540;-75
2022/04/25 05:20:46;;;;;;;18.20;8.60;;;;;;;;;;4911172;29;20541;-77
2022/04/25 05:23:13;;;;;;;17.10;8.37;;;;;;;;;;4910575;29;20451;-78
2022/04/25 05:25:40;;;;;;;16.57;7.73;;;;;;;;;;4910564;29;20578;-77
2022/04/25 05:28:07;;;;;;;12.67;7.40;;;;;;;;;;4910061;29;20443;-78
2022/04/25 05:30:36;;;;;;;15.93;8.27;;;;;;;;;;4909674;29;20451;-75
2022/04/25 05:33:03;;;;;;;16.13;8.07;;;;;;;;;;4908794;29;21030;-78
2022/04/25 05:35:31;;;;;;;15.13;7.87;;;;;;;;;;4911184;29;20959;-79
2022/04/25 05:38:16;;;;;;;18.80;8.10;;;;;;;;;;4909526;29;20443;-74
2022/04/25 05:40:43;;;;;;;15.60;7.57;;;;;;;;;;4908251;29;20491;-74
2022/04/25 05:43:10;;;;;;;20.43;8.40;;;;;;;;;;4906978;29;20484;-75
2022/04/25 05:45:36;;;;;;;21.77;8.60;;;;;;;;;;4905661;29;21133;-76
2022/04/25 05:51:58;;;;;;;19.50;9.43;;;;;;;;;;4913384;29;20882;-78
2022/04/25 05:53:38;;;;;;;16.73;9.10;;;;;;;;;;4911867;29;20451;-78
2022/04/25 05:56:22;;;;;;;16.47;7.73;;;;;;;;;;4917686;29;20518;-76
2022/04/25 05:58:49;;;;;;;20.27;8.67;;;;;;;;;;4906606;29;20649;-75
2022/04/25 06:01:16;;;;;;;15.67;8.57;;;;;;;;;;4908667;29;20534;-77
2022/04/25 06:03:43;;;;;;;18.23;8.80;;;;;;;;;;4910746;29;20451;-78
2022/04/25 06:06:10;;;;;;;15.20;8.53;;;;;;;;;;4906498;29;21002;-76
2022/04/25 06:08:37;;;;;;;13.33;8.07;;;;;;;;;;4909703;29;20475;-78
2022/04/25 06:11:04;;;;;;;17.80;8.73;;;;;;;;;;4908351;29;20227;-79
2022/04/25 06:13:31;;;;;;;15.87;8.53;;;;;;;;;;4910827;29;20466;-80
2022/04/25 06:16:00;;;;;;;16.93;8.33;;;;;;;;;;4912275;29;20458;-78
2022/04/25 06:18:27;;;;;;;12.67;8.40;;;;;;;;;;4912085;29;20450;-78
2022/04/25 06:20:54;;;;;;;15.13;8.57;;;;;;;;;;4909866;29;20443;-72
2022/04/25 06:23:21;;;;;;;14.10;8.97;;;;;;;;;;4908963;29;20854;-73
2022/04/25 06:25:48;;;;;;;16.30;9.70;;;;;;;;;;4909844;29;20681;-73
2022/04/25 06:28:15;;;;;;;11.27;7.90;;;;;;;;;;4910835;29;20448;-72
2022/04/25 06:30:42;;;;;;;15.60;8.20;;;;;;;;;;4929614;29;20527;-73
2022/04/25 06:33:10;;;;;;;13.77;8.50;;;;;;;;;;4917239;29;20436;-75
2022/04/25 06:35:38;;;;;;;14.83;8.83;;;;;;;;;;4915196;29;20547;-75
2022/04/25 06:38:22;;;;;;;16.57;8.03;;;;;;;;;;4911517;29;20447;-74
2022/04/25 06:40:51;;;;;;;12.50;8.30;;;;;;;;;;4916774;29;20435;-73
2022/04/25 06:43:36;;;;;;;14.37;7.80;;;;;;;;;;4915768;29;20979;-73
2022/04/25 06:46:04;;;;;;;13.80;8.00;;;;;;;;;;4916744;29;20569;-73
2022/04/25 06:48:32;;;;;;;11.27;7.87;;;;;;;;;;4915351;29;20518;-73
2022/04/25 06:51:00;;;;;;;12.00;7.60;;;;;;;;;;4915261;29;20531;-74
2022/04/25 06:53:27;;;;;;;10.40;7.27;;;;;;;;;;4916578;29;20443;-74
2022/04/25 06:55:54;;;;;;;11.57;7.07;;;;;;;;;;4913417;29;20491;-74
2022/04/25 06:58:21;;;;;;;9.37;6.83;;;;;;;;;;4916486;29;20436;-74
2022/04/25 07:00:49;;;;;;;15.60;7.33;;;;;;;;;;4912573;29;20456;-74
2022/04/25 07:03:26;;;;;;;13.90;7.27;;;;;;;;;;4914988;29;20501;-74
2022/04/25 07:05:55;;;;;;;14.83;7.37;;;;;;;;;;4913758;29;21038;-74
2022/04/25 07:08:22;;;;;;;12.80;7.63;;;;;;;;;;4915128;29;20558;-73
2022/04/25 07:10:50;;;;;;;12.37;7.27;;;;;;;;;;4915378;29;20935;-74
2022/04/25 07:13:17;;;;;;;9.70;6.80;;;;;;;;;;4923416;29;20545;-74
2022/04/25 07:15:45;;;;;;;12.13;6.87;;;;;;;;;;4913037;29;20459;-74
2022/04/25 07:18:15;;;;;;;15.03;7.00;;;;;;;;;;4912488;29;20525;-74
2022/04/25 07:20:42;;;;;;;14.97;7.40;;;;;;;;;;4940815;29;20448;-74
2022/04/25 07:28:52;;;;;;;14.27;8.33;;;;;;;;;;4914209;29;20448;-75
2022/04/25 07:31:19;;;;;;;14.80;7.67;;;;;;;;;;4929733;29;20454;-75
2022/04/25 07:33:47;;;;;;;14.17;7.60;;;;;;;;;;4910682;29;20496;-74
2022/04/25 07:36:17;;;;;;;17.13;10.10;;;;;;;;;;4914449;29;20452;-75
2022/04/25 07:38:45;;;;;;;16.20;7.60;;;;;;;;;;4911922;29;20454;-75
2022/04/25 07:41:13;;;;;;;12.00;7.43;;;;;;;;;;4897187;29;20454;-74
2022/04/25 07:43:44;;;;;;;13.83;8.43;;;;;;;;;;4911716;29;20491;-75
2022/04/25 07:46:13;;;;;;;12.50;7.97;;;;;;;;;;4910013;29;20512;-75
2022/04/25 07:48:40;;;;;;;12.30;8.23;;;;;;;;;;4912491;29;20459;-74
2022/04/25 07:51:07;;;;;;;14.33;8.30;;;;;;;;;;4914226;29;20459;-74
2022/04/25 07:53:33;;;;;;;15.37;8.53;;;;;;;;;;4915069;29;20527;-74
2022/04/25 07:56:00;;;;;;;14.13;8.67;;;;;;;;;;4929111;29;20494;-74
2022/04/25 07:58:28;;;;;;;16.93;8.40;;;;;;;;;;4913717;29;20455;-75
2022/04/25 08:00:56;;;;;;;14.17;7.60;;;;;;;;;;4910151;29;20468;-75
2022/04/25 08:03:25;;;;;;;11.67;7.10;;;;;;;;;;4913634;29;20470;-74
2022/04/25 08:05:52;;;;;;;12.67;7.17;;;;;;;;;;4913629;29;20219;-74
2022/04/25 08:08:19;;;;;;;10.07;6.43;;;;;;;;;;4915796;29;20444;-75
2022/04/25 08:10:46;;;;;;;10.83;6.10;;;;;;;;;;4914498;29;20463;-75
2022/04/25 08:18:44;;;;;;;8.67;6.23;;;;;;;;;;4913896;29;20443;-74
2022/04/25 08:21:11;;;;;;;7.47;5.60;;;;;;;;;;4915375;29;20993;-74
2022/04/25 08:23:40;;;;;;;9.97;4.77;;;;;;;;;;4914651;29;20499;-74
2022/04/25 08:26:07;;;;;;;7.80;5.63;;;;;;;;;;4914585;29;20242;-74
2022/04/25 08:28:52;;;;;;;8.03;5.97;;;;;;;;;;4914920;29;20439;-74
2022/04/25 08:31:31;;;;;;;7.73;5.27;;;;;;;;;;4914109;29;20459;-74
2022/04/25 08:34:16;;;;;;;5.00;3.90;;;;;;;;;;4922548;29;20224;-74
2022/04/25 08:36:43;;;;;;;5.03;4.23;;;;;;;;;;4914802;29;20270;-74
2022/04/25 08:39:10;;;;;;;5.77;4.30;;;;;;;;;;4913867;29;20432;-74
2022/04/25 08:41:47;;;;;;;5.77;3.97;;;;;;;;;;4911889;29;20195;-74
2022/04/25 08:44:15;;;;;;;6.53;3.93;;;;;;;;;;4915283;29;20251;-73
2022/04/25 08:46:44;;;;;;;8.47;4.00;;;;;;;;;;4915241;29;20258;-76
2022/04/25 08:49:11;;;;;;;10.00;4.93;;;;;;;;;;4908159;29;20815;-73
2022/04/25 08:51:38;;;;;;;10.87;6.17;;;;;;;;;;4908851;29;20848;-76
2022/04/25 08:54:08;;;;;;;10.43;6.33;;;;;;;;;;4898322;29;20538;-76
2022/04/25 08:56:36;;;;;;;10.47;6.63;;;;;;;;;;4910311;29;20478;-75
2022/04/25 08:59:09;;;;;;;12.23;7.47;;;;;;;;;;4913468;29;20926;-73
2022/04/25 09:01:40;;;;;;;11.30;7.93;;;;;;;;;;4909602;29;20489;-73
2022/04/25 09:04:25;;;;;;;16.30;8.93;;;;;;;;;;4909346;29;21009;-72
2022/04/25 09:06:55;;;;;;;16.83;9.50;;;;;;;;;;4911964;29;20883;-72
2022/04/25 09:09:23;;;;;;;16.67;8.87;;;;;;;;;;4911251;29;20453;-77
2022/04/25 09:12:32;;;;;;;15.77;9.27;;;;;;;;;;4908948;29;20463;-72
2022/04/25 09:14:41;;;;;;;16.37;8.73;;;;;;;;;;4901247;29;20671;-75
2022/04/25 09:17:08;;;;;;;13.80;7.90;;;;;;;;;;4909581;29;20482;-73
2022/04/25 09:19:36;;;;;;;14.07;8.30;;;;;;;;;;4922912;29;20467;-71
2022/04/25 09:22:04;;;;;;;17.33;10.03;;;;;;;;;;4915558;29;20483;-73
2022/04/25 09:24:35;;;;;;;18.07;9.97;;;;;;;;;;4915988;29;20487;-74
2022/04/25 09:27:08;;;;;;;14.30;9.53;;;;;;;;;;4914409;29;20539;-74
2022/04/25 09:29:35;;;;;;;18.17;10.10;;;;;;;;;;4932350;29;20444;-74
2022/04/25 09:32:03;;;;;;;17.67;10.03;;;;;;;;;;4901011;29;20456;-74
2022/04/25 09:37:16;;;;;;;17.63;9.83;;;;;;;;;;4915497;29;20447;-73
2022/04/25 09:39:44;;;;;;;19.37;10.57;;;;;;;;;;4913464;29;20508;-74
2022/04/25 09:42:11;;;;;;;16.33;9.93;;;;;;;;;;4897615;29;20499;-74
2022/04/25 09:44:57;;;;;;;18.77;11.17;;;;;;;;;;4906705;29;20530;-77
2022/04/25 09:47:31;;;;;;;18.03;10.83;;;;;;;;;;4910738;29;20475;-75
2022/04/25 09:50:08;;;;;;;21.63;11.47;;;;;;;;;;4908880;29;20482;-77
2022/04/25 09:52:55;;;;;;;16.37;10.90;;;;;;;;;;4910326;29;20210;-72
2022/04/25 09:55:43;;;;;;;18.47;10.27;;;;;;;;;;4907662;29;20230;-72
2022/04/25 09:58:19;;;;;;;19.03;10.70;;;;;;;;;;4910616;29;20864;-73
2022/04/25 10:00:46;;;;;;;17.83;9.43;;;;;;;;;;4909268;29;20290;-73
2022/04/25 10:03:18;;;;;;;17.50;9.27;;;;;;;;;;4907828;29;20479;-74
2022/04/25 10:05:46;;;;;;;18.40;8.80;;;;;;;;;;4910237;29;20222;-75
2022/04/25 10:08:14;;;;;;;13.40;7.90;;;;;;;;;;4897028;29;20447;-74
2022/04/25 10:10:48;;;;;;;13.73;8.17;;;;;;;;;;4909704;29;20490;-72
2022/04/25 10:13:17;;;;;;;14.53;7.93;;;;;;;;;;4909065;29;20445;-72
2022/04/25 10:15:44;;;;;;;12.63;6.60;;;;;;;;;;4918012;29;21036;-72
2022/04/25 10:18:12;;;;;;;15.93;8.20;;;;;;;;;;4904269;29;20280;-72
2022/04/25 10:20:40;;;;;;;16.07;8.87;;;;;;;;;;4908349;29;20271;-72
2022/04/25 10:23:11;;;;;;;16.77;9.03;;;;;;;;;;4908084;29;20547;-73
2022/04/25 10:25:40;;;;;;;15.80;8.90;;;;;;;;;;4908880;29;20242;-71
2022/04/25 10:28:09;;;;;;;17.53;9.20;;;;;;;;;;4908051;29;20667;-70
2022/04/25 10:30:36;;;;;;;19.67;10.00;;;;;;;;;;4908597;29;20546;-70
2022/04/25 10:33:13;;;;;;;19.10;9.43;;;;;;;;;;4908485;29;20196;-72
2022/04/25 10:35:40;;;;;;;18.83;10.00;;;;;;;;;;4910193;29;20522;-72
2022/04/25 10:38:47;;;;;;;18.50;9.20;;;;;;;;;;4906406;29;20282;-73
2022/04/25 10:44:16;;;;;;;16.87;9.57;;;;;;;;;;4908111;29;21519;-71
2022/04/25 10:47:02;;;;;;;19.13;10.00;;;;;;;;;;4909949;29;20470;-73
2022/04/25 10:49:40;;;;;;;16.90;9.40;;;;;;;;;;4923464;29;20451;-70
2022/04/25 10:52:27;;;;;;;21.17;10.43;;;;;;;;;;4908933;29;20195;-72
2022/04/25 10:55:11;;;;;;;18.03;9.63;;;;;;;;;;4922429;29;20476;-70
2022/04/25 10:57:38;;;;;;;17.30;9.37;;;;;;;;;;4911778;29;20455;-71
2022/04/25 11:00:25;;;;;;;22.07;9.30;;;;;;;;;;4908911;29;20518;-70
2022/04/25 11:03:07;;;;;;;16.87;9.60;;;;;;;;;;4907655;29;20463;-72
2022/04/25 11:05:36;;;;;;;15.17;9.13;;;;;;;;;;4907831;29;20215;-72
2022/04/25 11:08:18;;;;;;;17.27;10.20;;;;;;;;;;4907441;29;20442;-74
2022/04/25 11:11:03;;;;;;;18.43;10.30;;;;;;;;;;4905331;29;20582;-74
2022/04/25 11:13:49;;;;;;;17.20;10.00;;;;;;;;;;4907009;29;21294;-69
2022/04/25 11:16:16;;;;;;;18.80;9.87;;;;;;;;;;4908046;29;20458;-75
2022/04/25 11:18:43;;;;;;;21.10;10.93;;;;;;;;;;4902322;29;21426;-74
2022/04/25 11:21:15;;;;;;;18.47;10.63;;;;;;;;;;4901408;29;20498;-78
2022/04/25 11:23:48;;;;;;;17.53;10.23;;;;;;;;;;4906213;29;20207;-72
2022/04/25 11:26:37;;;;;;;17.53;10.83;;;;;;;;;;4905145;29;20486;-74
2022/04/25 11:29:09;;;;;;;17.13;10.30;;;;;;;;;;4891373;29;20216;-73
2022/04/25 11:31:38;;;;;;;16.13;10.60;;;;;;;;;;4908016;29;20463;-74
2022/04/25 11:34:12;;;;;;;16.70;10.30;;;;;;;;;;4901276;29;20811;-74
2022/04/25 11:36:43;;;;;;;18.03;10.70;;;;;;;;;;4905915;29;20990;-74
2022/04/25 11:42:02;;;;;;;17.37;9.97;;;;;;;;;;4903577;29;20231;-80
2022/04/25 11:44:47;;;;;;;15.10;10.17;;;;;;;;;;4900531;29;20434;-78
2022/04/25 11:47:14;;;;;;;19.50;10.43;;;;;;;;;;4886675;29;20491;-77
2022/04/25 11:49:41;;;;;;;14.80;9.67;;;;;;;;;;4903772;29;20315;-78
2022/04/25 11:52:12;;;;;;;15.47;10.30;;;;;;;;;;4906305;29;20761;-76
2022/04/25 11:54:42;;;;;;;17.63;10.13;;;;;;;;;;4922642;29;20223;-78
2022/04/25 11:57:09;;;;;;;17.13;9.57;;;;;;;;;;4905502;29;20483;-79
2022/04/25 11:59:37;;;;;;;18.40;9.93;;;;;;;;;;4923902;29;20188;-78
2022/04/25 12:02:04;;;;;;;18.73;10.43;;;;;;;;;;4903242;29;20290;-77
2022/04/25 12:04:34;;;;;;;15.77;9.37;;;;;;;;;;4905153;29;20729;-80
2022/04/25 12:07:08;;;;;;;17.40;10.20;;;;;;;;;;4906821;29;20495;-78
2022/04/25 12:18:23;;;;;;;16.60;9.60;;;;;;;;;;4868179;29;20236;-79
2022/04/25 12:20:51;;;;;;;15.57;9.10;;;;;;;;;;4891400;28;20247;-78
2022/04/25 12:23:23;;;;;;;18.80;9.47;;;;;;;;;;4910908;29;20475;-77
2022/04/25 12:26:15;;;;;;;16.17;8.80;;;;;;;;;;4909201;29;20494;-77
2022/04/25 12:28:55;;;;;;;15.67;9.80;;;;;;;;;;4911564;29;20289;-79
2022/04/25 12:31:22;;;;;;;16.70;9.67;;;;;;;;;;4911497;29;20290;-74
2022/04/25 12:33:50;;;;;;;17.23;10.07;;;;;;;;;;4911249;29;20459;-77
2022/04/25 12:36:24;;;;;;;17.87;9.47;;;;;;;;;;4908873;29;20203;-76
2022/04/25 12:38:55;;;;;;;16.27;8.70;;;;;;;;;;4908343;29;20478;-75
2022/04/25 12:41:32;;;;;;;14.33;8.73;;;;;;;;;;4907242;29;20204;-76
2022/04/25 12:44:11;;;;;;;18.53;9.53;;;;;;;;;;4912101;29;20542;-73
2022/04/25 12:46:45;;;;;;;16.83;8.60;;;;;;;;;;4911478;29;20647;-77
2022/04/25 12:49:18;;;;;;;14.50;8.20;;;;;;;;;;4910112;29;20203;-79
2022/04/25 12:51:47;;;;;;;15.73;8.87;;;;;;;;;;4909164;29;20286;-78
2022/04/25 12:54:26;;;;;;;13.83;8.10;;;;;;;;;;4900319;29;21282;-79
2022/04/25 12:57:08;;;;;;;15.83;8.53;;;;;;;;;;4909042;29;20986;-76
2022/04/25 12:59:36;;;;;;;17.73;8.37;;;;;;;;;;4910999;29;20201;-77
2022/04/25 13:02:06;;;;;;;14.07;8.57;;;;;;;;;;4909586;29;20656;-78
2022/04/25 13:04:50;;;;;;;15.73;8.17;;;;;;;;;;4929918;29;20463;-76
2022/04/25 13:07:37;;;;;;;13.80;8.13;;;;;;;;;;4918355;29;20233;-76
2022/04/25 13:10:05;;;;;;;15.30;8.77;;;;;;;;;;4902047;29;20439;-76
2022/04/25 13:12:36;;;;;;;13.40;7.83;;;;;;;;;;4916359;29;20188;-76
2022/04/25 13:15:04;;;;;;;14.87;7.93;;;;;;;;;;4931467;29;20200;-77
2022/04/25 13:17:38;;;;;;;12.93;7.63;;;;;;;;;;4917974;29;20541;-76
2022/04/25 13:20:09;;;;;;;12.60;7.00;;;;;;;;;;4901757;29;20226;-76
2022/04/25 13:22:36;;;;;;;13.17;6.97;;;;;;;;;;4901481;29;20485;-75
2022/04/25 13:25:04;;;;;;;11.97;6.80;;;;;;;;;;4908268;29;20462;-77
2022/04/25 13:27:32;;;;;;;13.63;7.10;;;;;;;;;;4908927;29;20235;-76
2022/04/25 13:30:03;;;;;;;13.23;6.73;;;;;;;;;;4909795;29;20450;-76
2022/04/25 13:32:30;;;;;;;11.90;6.57;;;;;;;;;;4905791;29;20447;-80
2022/04/25 13:34:57;;;;;;;13.03;6.80;;;;;;;;;;4909092;29;20467;-78
2022/04/25 13:37:25;;;;;;;12.73;7.30;;;;;;;;;;4907966;29;20211;-76
2022/04/25 13:39:52;;;;;;;11.90;6.47;;;;;;;;;;4918199;29;21026;-79
2022/04/25 13:42:20;;;;;;;13.60;6.70;;;;;;;;;;4908916;29;20479;-80
2022/04/25 13:44:47;;;;;;;12.80;7.07;;;;;;;;;;4910641;29;20474;-77
2022/04/25 13:47:14;;;;;;;15.70;7.70;;;;;;;;;;4909470;29;20487;-79
2022/04/25 13:49:43;;;;;;;17.10;7.80;;;;;;;;;;4910812;29;20436;-75
2022/04/25 13:52:10;;;;;;;14.13;6.97;;;;;;;;;;4914320;29;20982;-75
2022/04/25 13:54:40;;;;;;;15.50;7.77;;;;;;;;;;4910432;29;20523;-76
2022/04/25 13:57:09;;;;;;;14.67;7.83;;;;;;;;;;4912742;29;20444;-75
2022/04/25 13:59:46;;;;;;;12.30;7.53;;;;;;;;;;4915367;29;20730;-75
2022/04/25 14:05:00;;;;;;;14.27;7.93;;;;;;;;;;4907860;29;20451;-74
2022/04/25 14:07:27;;;;;;;15.30;7.23;;;;;;;;;;4926080;29;20522;-76
2022/04/25 14:09:54;;;;;;;13.43;7.40;;;;;;;;;;4916709;29;20448;-74
2022/04/25 14:12:21;;;;;;;14.00;7.97;;;;;;;;;;4916075;29;20444;-75
2022/04/25 14:14:48;;;;;;;12.50;7.90;;;;;;;;;;4930567;29;20463;-76
2022/04/25 14:17:14;;;;;;;15.83;7.73;;;;;;;;;;4910726;29;20495;-75
2022/04/25 14:19:42;;;;;;;12.00;7.37;;;;;;;;;;4916244;29;20290;-76
2022/04/25 14:22:09;;;;;;;13.07;7.53;;;;;;;;;;4904129;28;20812;-76
2022/04/25 14:24:35;;;;;;;13.77;8.40;;;;;;;;;;4915894;29;20959;-75
2022/04/25 14:27:02;;;;;;;11.37;6.53;;;;;;;;;;4914358;29;20515;-76
2022/04/25 14:29:30;;;;;;;10.03;5.83;;;;;;;;;;4916343;29;20458;-75
2022/04/25 14:31:57;;;;;;;11.23;5.93;;;;;;;;;;4914445;29;20447;-76
2022/04/25 14:34:24;;;;;;;10.93;6.40;;;;;;;;;;4915151;29;20452;-75
2022/04/25 14:36:51;;;;;;;9.13;5.37;;;;;;;;;;4915350;29;20444;-75
2022/04/25 14:39:18;;;;;;;13.13;5.60;;;;;;;;;;4915080;29;20518;-75
2022/04/25 14:41:45;;;;;;;10.57;5.20;;;;;;;;;;4930981;29;20525;-75
2022/04/25 14:44:12;;;;;;;10.40;5.37;;;;;;;;;;4915528;29;20440;-75
2022/04/25 14:46:40;;;;;;;7.73;4.93;;;;;;;;;;4916569;29;20471;-76
2022/04/25 14:49:07;;;;;;;10.07;4.30;;;;;;;;;;4916295;29;20450;-75
2022/04/25 14:54:21;;;;;;;5.67;4.03;;;;;;;;;;4915805;29;20195;-76
2022/04/25 14:57:06;;;;;;;6.60;4.03;;;;;;;;;;4916320;29;20419;-75
2022/04/25 14:59:34;;;;;;;10.80;4.40;;;;;;;;;;4914365;29;20459;-75
2022/04/25 15:02:03;;;;;;;7.47;4.37;;;;;;;;;;4914047;29;20236;-76
2022/04/25 15:04:37;;;;;;;7.50;5.00;;;;;;;;;;5112737;27;781840;-75
2022/04/25 15:07:04;;;;;;;9.63;5.13;;;;;;;;;;5113696;28;20529;-75
2022/04/25 15:09:31;;;;;;;8.90;4.43;;;;;;;;;;5116534;28;20633;-75
2022/04/25 15:11:59;;;;;;;8.73;5.73;;;;;;;;;;5088289;28;20455;-75
2022/04/25 15:14:26;;;;;;;8.83;5.70;;;;;;;;;;5101299;28;20192;-75
2022/04/25 15:16:54;;;;;;;9.90;5.60;;;;;;;;;;5107265;27;20239;-76
2022/04/25 15:19:21;;;;;;;11.73;6.53;;;;;;;;;;5112259;28;20423;-75
2022/04/25 15:21:49;;;;;;;9.90;6.50;;;;;;;;;;5112765;28;20454;-75
2022/04/25 15:24:18;;;;;;;12.07;7.50;;;;;;;;;;5092679;27;20230;-76
2022/04/25 15:26:45;;;;;;;11.63;6.70;;;;;;;;;;5062381;28;20448;-75
2022/04/25 15:29:13;;;;;;;11.23;6.50;;;;;;;;;;5049992;28;20452;-75
2022/04/25 15:31:40;;;;;;;11.80;7.30;;;;;;;;;;5060574;28;20488;-75